sensor_id;sensor_type;location;lat;lon;timestamp;pressure;altitude;pressure_sealevel;temperature;humidity
59873;BME280;50750;51.636;4.948;2023-06-14T00:00:32;101602.92;;;27.63;48.64
59873;BME280;50750;51.636;4.948;2023-06-14T00:03:20;101604.06;;;27.63;48.53
59873;BME280;50750;51.636;4.948;2023-06-14T00:05:48;101606.45;;;27.63;48.59
59873;BME280;50750;51.636;4.948;2023-06-14T00:08:14;101606.11;;;27.62;48.51
59873;BME280;50750;51.636;4.948;2023-06-14T00:10:41;101604.34;;;27.62;48.60
59873;BME280;50750;51.636;4.948;2023-06-14T00:13:09;101607.05;;;27.62;48.50
59873;BME280;50750;51.636;4.948;2023-06-14T00:15:35;101606.35;;;27.61;48.48
59873;BME280;50750;51.636;4.948;2023-06-14T00:18:03;101606.75;;;27.61;48.45
59873;BME280;50750;51.636;4.948;2023-06-14T00:20:31;101606.98;;;27.60;48.57
59873;BME280;50750;51.636;4.948;2023-06-14T00:23:00;101608.80;;;27.60;48.43
59873;BME280;50750;51.636;4.948;2023-06-14T00:25:27;101606.01;;;27.59;48.43
59873;BME280;50750;51.636;4.948;2023-06-14T00:27:57;101608.38;;;27.59;48.50
59873;BME280;50750;51.636;4.948;2023-06-14T00:30:24;101606.94;;;27.59;48.44
59873;BME280;50750;51.636;4.948;2023-06-14T00:32:51;101606.27;;;27.58;48.45
59873;BME280;50750;51.636;4.948;2023-06-14T00:35:17;101612.23;;;27.58;48.36
59873;BME280;50750;51.636;4.948;2023-06-14T00:37:44;101609.23;;;27.58;48.47
59873;BME280;50750;51.636;4.948;2023-06-14T00:40:10;101608.21;;;27.57;48.40
59873;BME280;50750;51.636;4.948;2023-06-14T00:42:37;101603.91;;;27.57;48.32
59873;BME280;50750;51.636;4.948;2023-06-14T00:45:04;101603.94;;;27.57;48.39
59873;BME280;50750;51.636;4.948;2023-06-14T00:47:31;101601.52;;;27.55;48.31
59873;BME280;50750;51.636;4.948;2023-06-14T00:49:58;101608.50;;;27.56;48.38
59873;BME280;50750;51.636;4.948;2023-06-14T00:52:26;101607.15;;;27.54;48.25
59873;BME280;50750;51.636;4.948;2023-06-14T00:54:53;101610.08;;;27.54;48.30
59873;BME280;50750;51.636;4.948;2023-06-14T00:57:19;101607.08;;;27.53;48.40
59873;BME280;50750;51.636;4.948;2023-06-14T00:59:48;101606.54;;;27.53;48.33
59873;BME280;50750;51.636;4.948;2023-06-14T01:02:15;101609.47;;;27.52;48.32
59873;BME280;50750;51.636;4.948;2023-06-14T01:04:44;101610.07;;;27.52;48.34
59873;BME280;50750;51.636;4.948;2023-06-14T01:07:34;101607.42;;;27.51;48.30
59873;BME280;50750;51.636;4.948;2023-06-14T01:13:15;101612.76;;;27.50;48.38
59873;BME280;50750;51.636;4.948;2023-06-14T01:15:45;101610.99;;;27.50;48.38
59873;BME280;50750;51.636;4.948;2023-06-14T01:18:13;101608.16;;;27.49;48.34
59873;BME280;50750;51.636;4.948;2023-06-14T01:20:45;101605.88;;;27.49;48.28
59873;BME280;50750;51.636;4.948;2023-06-14T01:23:20;101607.15;;;27.48;48.27
59873;BME280;50750;51.636;4.948;2023-06-14T01:25:48;101604.88;;;27.48;48.30
59873;BME280;50750;51.636;4.948;2023-06-14T01:28:20;101605.48;;;27.47;48.25
59873;BME280;50750;51.636;4.948;2023-06-14T01:30:49;101605.11;;;27.47;48.38
59873;BME280;50750;51.636;4.948;2023-06-14T01:33:20;101604.63;;;27.46;48.33
59873;BME280;50750;51.636;4.948;2023-06-14T01:35:49;101605.37;;;27.46;48.24
59873;BME280;50750;51.636;4.948;2023-06-14T01:38:19;101607.61;;;27.45;48.31
59873;BME280;50750;51.636;4.948;2023-06-14T01:40:46;101607.48;;;27.45;48.19
59873;BME280;50750;51.636;4.948;2023-06-14T01:43:15;101609.70;;;27.44;48.23
59873;BME280;50750;51.636;4.948;2023-06-14T01:45:42;101611.69;;;27.44;48.26
59873;BME280;50750;51.636;4.948;2023-06-14T01:48:11;101613.02;;;27.43;48.15
59873;BME280;50750;51.636;4.948;2023-06-14T01:50:38;101605.30;;;27.43;48.24
59873;BME280;50750;51.636;4.948;2023-06-14T01:53:07;101609.46;;;27.43;48.25
59873;BME280;50750;51.636;4.948;2023-06-14T01:55:34;101607.03;;;27.42;48.19
59873;BME280;50750;51.636;4.948;2023-06-14T01:58:04;101601.86;;;27.41;48.24
59873;BME280;50750;51.636;4.948;2023-06-14T02:00:31;101605.49;;;27.41;48.30
59873;BME280;50750;51.636;4.948;2023-06-14T02:02:57;101606.80;;;27.41;48.28
59873;BME280;50750;51.636;4.948;2023-06-14T02:05:24;101608.79;;;27.41;48.30
59873;BME280;50750;51.636;4.948;2023-06-14T02:07:50;101609.23;;;27.39;48.23
59873;BME280;50750;51.636;4.948;2023-06-14T02:10:17;101606.02;;;27.39;48.17
59873;BME280;50750;51.636;4.948;2023-06-14T02:12:44;101612.41;;;27.38;48.29
59873;BME280;50750;51.636;4.948;2023-06-14T02:15:10;101610.64;;;27.38;48.28
59873;BME280;50750;51.636;4.948;2023-06-14T02:17:43;101610.67;;;27.37;48.20
59873;BME280;50750;51.636;4.948;2023-06-14T02:20:10;101607.33;;;27.37;48.10
59873;BME280;50750;51.636;4.948;2023-06-14T02:22:37;101607.02;;;27.36;48.15
59873;BME280;50750;51.636;4.948;2023-06-14T02:25:03;101606.36;;;27.36;48.23
59873;BME280;50750;51.636;4.948;2023-06-14T02:27:30;101609.09;;;27.35;48.19
59873;BME280;50750;51.636;4.948;2023-06-14T02:29:56;101609.16;;;27.34;48.11
59873;BME280;50750;51.636;4.948;2023-06-14T02:32:23;101609.56;;;27.34;48.13
59873;BME280;50750;51.636;4.948;2023-06-14T02:34:49;101612.32;;;27.33;48.23
59873;BME280;50750;51.636;4.948;2023-06-14T02:37:16;101616.15;;;27.33;48.29
59873;BME280;50750;51.636;4.948;2023-06-14T02:39:43;101615.64;;;27.32;48.23
59873;BME280;50750;51.636;4.948;2023-06-14T02:42:09;101617.16;;;27.31;48.13
59873;BME280;50750;51.636;4.948;2023-06-14T02:44:36;101615.98;;;27.30;48.25
59873;BME280;50750;51.636;4.948;2023-06-14T02:47:03;101614.95;;;27.30;48.22
59873;BME280;50750;51.636;4.948;2023-06-14T02:49:31;101615.88;;;27.29;48.23
59873;BME280;50750;51.636;4.948;2023-06-14T02:51:57;101620.81;;;27.28;48.22
59873;BME280;50750;51.636;4.948;2023-06-14T02:54:23;101621.61;;;27.28;48.31
59873;BME280;50750;51.636;4.948;2023-06-14T02:56:50;101623.64;;;27.27;48.20
59873;BME280;50750;51.636;4.948;2023-06-14T02:59:16;101620.80;;;27.26;48.31
59873;BME280;50750;51.636;4.948;2023-06-14T03:01:43;101622.45;;;27.26;48.22
59873;BME280;50750;51.636;4.948;2023-06-14T03:04:09;101621.70;;;27.25;48.21
59873;BME280;50750;51.636;4.948;2023-06-14T03:06:36;101622.98;;;27.24;48.27
59873;BME280;50750;51.636;4.948;2023-06-14T03:09:03;101623.92;;;27.24;48.33
59873;BME280;50750;51.636;4.948;2023-06-14T03:11:32;101627.34;;;27.24;48.24
59873;BME280;50750;51.636;4.948;2023-06-14T03:13:59;101627.07;;;27.23;48.20
59873;BME280;50750;51.636;4.948;2023-06-14T03:16:26;101631.27;;;27.22;48.26
59873;BME280;50750;51.636;4.948;2023-06-14T03:18:56;101633.86;;;27.22;48.33
59873;BME280;50750;51.636;4.948;2023-06-14T03:21:22;101634.65;;;27.21;48.33
59873;BME280;50750;51.636;4.948;2023-06-14T03:23:48;101633.59;;;27.20;48.31
59873;BME280;50750;51.636;4.948;2023-06-14T03:26:15;101633.65;;;27.20;48.31
59873;BME280;50750;51.636;4.948;2023-06-14T03:28:44;101631.74;;;27.19;48.30
59873;BME280;50750;51.636;4.948;2023-06-14T03:31:15;101634.81;;;27.19;48.42
59873;BME280;50750;51.636;4.948;2023-06-14T03:33:42;101639.77;;;27.18;48.45
59873;BME280;50750;51.636;4.948;2023-06-14T03:36:09;101642.31;;;27.17;48.37
59873;BME280;50750;51.636;4.948;2023-06-14T03:38:35;101642.90;;;27.17;48.35
59873;BME280;50750;51.636;4.948;2023-06-14T03:41:01;101643.83;;;27.16;48.29
59873;BME280;50750;51.636;4.948;2023-06-14T03:43:28;101642.24;;;27.16;48.41
59873;BME280;50750;51.636;4.948;2023-06-14T03:45:56;101643.52;;;27.15;48.46
59873;BME280;50750;51.636;4.948;2023-06-14T03:48:23;101644.73;;;27.14;48.31
59873;BME280;50750;51.636;4.948;2023-06-14T03:50:49;101650.87;;;27.14;48.44
59873;BME280;50750;51.636;4.948;2023-06-14T03:53:16;101651.78;;;27.14;48.50
59873;BME280;50750;51.636;4.948;2023-06-14T03:55:43;101652.73;;;27.13;48.39
59873;BME280;50750;51.636;4.948;2023-06-14T03:58:09;101653.83;;;27.13;48.39
59873;BME280;50750;51.636;4.948;2023-06-14T04:00:36;101657.14;;;27.12;48.62
59873;BME280;50750;51.636;4.948;2023-06-14T04:03:03;101657.03;;;27.11;48.57
59873;BME280;50750;51.636;4.948;2023-06-14T04:05:32;101655.46;;;27.10;48.63
59873;BME280;50750;51.636;4.948;2023-06-14T04:07:58;101657.64;;;27.10;48.51
59873;BME280;50750;51.636;4.948;2023-06-14T04:10:25;101660.59;;;27.09;48.63
59873;BME280;50750;51.636;4.948;2023-06-14T04:12:51;101663.31;;;27.09;48.45
59873;BME280;50750;51.636;4.948;2023-06-14T04:15:18;101666.27;;;27.08;48.52
59873;BME280;50750;51.636;4.948;2023-06-14T04:17:44;101667.77;;;27.07;48.56
59873;BME280;50750;51.636;4.948;2023-06-14T04:20:11;101670.00;;;27.07;48.54
59873;BME280;50750;51.636;4.948;2023-06-14T04:22:37;101668.21;;;27.06;48.44
59873;BME280;50750;51.636;4.948;2023-06-14T04:25:04;101669.52;;;27.06;48.52
59873;BME280;50750;51.636;4.948;2023-06-14T04:27:32;101669.56;;;27.05;48.52
59873;BME280;50750;51.636;4.948;2023-06-14T04:30:02;101669.10;;;27.04;48.51
59873;BME280;50750;51.636;4.948;2023-06-14T04:32:30;101668.23;;;27.04;48.51
59873;BME280;50750;51.636;4.948;2023-06-14T04:34:59;101669.38;;;27.03;48.42
59873;BME280;50750;51.636;4.948;2023-06-14T04:37:28;101673.71;;;27.03;48.45
59873;BME280;50750;51.636;4.948;2023-06-14T04:39:56;101670.55;;;27.02;48.55
59873;BME280;50750;51.636;4.948;2023-06-14T04:42:24;101672.41;;;27.01;48.58
59873;BME280;50750;51.636;4.948;2023-06-14T04:44:57;101676.96;;;27.01;48.58
59873;BME280;50750;51.636;4.948;2023-06-14T04:47:23;101676.84;;;27.00;48.60
59873;BME280;50750;51.636;4.948;2023-06-14T04:49:56;101679.91;;;27.00;48.59
59873;BME280;50750;51.636;4.948;2023-06-14T04:52:23;101678.54;;;26.99;48.56
59873;BME280;50750;51.636;4.948;2023-06-14T04:54:52;101684.69;;;26.99;48.46
59873;BME280;50750;51.636;4.948;2023-06-14T04:57:20;101682.02;;;26.99;48.73
59873;BME280;50750;51.636;4.948;2023-06-14T04:59:48;101680.96;;;26.98;48.61
59873;BME280;50750;51.636;4.948;2023-06-14T05:02:17;101684.27;;;26.98;48.68
59873;BME280;50750;51.636;4.948;2023-06-14T05:04:44;101683.92;;;26.98;48.75
59873;BME280;50750;51.636;4.948;2023-06-14T05:07:11;101681.10;;;26.97;48.74
59873;BME280;50750;51.636;4.948;2023-06-14T05:09:37;101678.06;;;26.97;48.68
59873;BME280;50750;51.636;4.948;2023-06-14T05:12:04;101679.91;;;26.96;48.78
59873;BME280;50750;51.636;4.948;2023-06-14T05:14:30;101686.73;;;26.96;48.76
59873;BME280;50750;51.636;4.948;2023-06-14T05:16:57;101685.55;;;26.95;48.81
59873;BME280;50750;51.636;4.948;2023-06-14T05:19:23;101694.38;;;26.95;48.70
59873;BME280;50750;51.636;4.948;2023-06-14T05:21:50;101695.55;;;26.94;48.81
59873;BME280;50750;51.636;4.948;2023-06-14T05:24:16;101699.48;;;26.94;48.72
59873;BME280;50750;51.636;4.948;2023-06-14T05:26:46;101698.65;;;26.94;48.79
59873;BME280;50750;51.636;4.948;2023-06-14T05:29:12;101700.73;;;26.92;48.83
59873;BME280;50750;51.636;4.948;2023-06-14T05:31:39;101699.64;;;26.93;48.71
59873;BME280;50750;51.636;4.948;2023-06-14T05:34:05;101698.63;;;26.92;48.81
59873;BME280;50750;51.636;4.948;2023-06-14T05:36:32;101700.64;;;26.91;48.81
59873;BME280;50750;51.636;4.948;2023-06-14T05:38:58;101700.52;;;26.91;48.85
59873;BME280;50750;51.636;4.948;2023-06-14T05:41:26;101699.63;;;26.90;48.89
59873;BME280;50750;51.636;4.948;2023-06-14T05:43:56;101702.40;;;26.90;48.83
59873;BME280;50750;51.636;4.948;2023-06-14T05:46:24;101706.39;;;26.89;48.62
59873;BME280;50750;51.636;4.948;2023-06-14T05:48:52;101703.75;;;26.88;48.72
59873;BME280;50750;51.636;4.948;2023-06-14T05:51:19;101702.56;;;26.88;48.57
59873;BME280;50750;51.636;4.948;2023-06-14T05:53:46;101706.16;;;26.87;48.61
59873;BME280;50750;51.636;4.948;2023-06-14T05:56:13;101706.98;;;26.86;48.64
59873;BME280;50750;51.636;4.948;2023-06-14T05:58:40;101710.19;;;26.87;48.64
59873;BME280;50750;51.636;4.948;2023-06-14T06:01:07;101711.85;;;26.86;48.54
59873;BME280;50750;51.636;4.948;2023-06-14T06:03:33;101719.09;;;26.85;48.77
59873;BME280;50750;51.636;4.948;2023-06-14T06:06:00;101722.17;;;26.85;48.73
59873;BME280;50750;51.636;4.948;2023-06-14T06:08:27;101721.50;;;26.85;48.56
59873;BME280;50750;51.636;4.948;2023-06-14T06:10:53;101721.89;;;26.84;48.65
59873;BME280;50750;51.636;4.948;2023-06-14T06:13:19;101720.10;;;26.84;48.72
59873;BME280;50750;51.636;4.948;2023-06-14T06:15:46;101721.11;;;26.83;48.42
59873;BME280;50750;51.636;4.948;2023-06-14T06:18:12;101722.72;;;26.83;48.47
59873;BME280;50750;51.636;4.948;2023-06-14T06:20:39;101724.44;;;26.82;48.44
59873;BME280;50750;51.636;4.948;2023-06-14T06:23:05;101726.77;;;26.82;48.39
59873;BME280;50750;51.636;4.948;2023-06-14T06:25:32;101728.06;;;26.82;48.43
59873;BME280;50750;51.636;4.948;2023-06-14T06:27:58;101729.88;;;26.81;48.51
59873;BME280;50750;51.636;4.948;2023-06-14T06:30:25;101732.61;;;26.81;48.44
59873;BME280;50750;51.636;4.948;2023-06-14T06:32:52;101734.65;;;26.80;48.53
59873;BME280;50750;51.636;4.948;2023-06-14T06:35:19;101736.46;;;26.80;48.23
59873;BME280;50750;51.636;4.948;2023-06-14T06:37:45;101740.23;;;26.78;47.67
59873;BME280;50750;51.636;4.948;2023-06-14T06:40:12;101742.09;;;26.77;47.25
59873;BME280;50750;51.636;4.948;2023-06-14T06:42:38;101749.70;;;26.77;47.15
59873;BME280;50750;51.636;4.948;2023-06-14T06:45:05;101751.92;;;26.76;46.92
59873;BME280;50750;51.636;4.948;2023-06-14T06:47:32;101754.80;;;26.76;47.45
59873;BME280;50750;51.636;4.948;2023-06-14T06:49:58;101754.11;;;26.75;47.77
59873;BME280;50750;51.636;4.948;2023-06-14T06:52:25;101753.77;;;26.75;47.94
59873;BME280;50750;51.636;4.948;2023-06-14T06:54:52;101758.30;;;26.75;48.06
59873;BME280;50750;51.636;4.948;2023-06-14T06:57:22;101762.84;;;26.74;48.05
59873;BME280;50750;51.636;4.948;2023-06-14T06:59:51;101759.11;;;26.74;48.14
59873;BME280;50750;51.636;4.948;2023-06-14T07:02:17;101760.58;;;26.73;48.10
59873;BME280;50750;51.636;4.948;2023-06-14T07:04:44;101762.56;;;26.73;48.23
59873;BME280;50750;51.636;4.948;2023-06-14T07:07:10;101763.33;;;26.72;48.18
59873;BME280;50750;51.636;4.948;2023-06-14T07:09:36;101763.69;;;26.72;48.24
59873;BME280;50750;51.636;4.948;2023-06-14T07:12:03;101766.77;;;26.72;48.10
59873;BME280;50750;51.636;4.948;2023-06-14T07:14:30;101769.65;;;26.72;48.23
59873;BME280;50750;51.636;4.948;2023-06-14T07:16:56;101774.20;;;26.72;48.22
59873;BME280;50750;51.636;4.948;2023-06-14T07:19:23;101777.60;;;26.72;48.30
59873;BME280;50750;51.636;4.948;2023-06-14T07:21:49;101773.68;;;26.71;48.03
59873;BME280;50750;51.636;4.948;2023-06-14T07:24:16;101778.36;;;26.71;48.21
59873;BME280;50750;51.636;4.948;2023-06-14T07:26:42;101776.07;;;26.71;48.15
59873;BME280;50750;51.636;4.948;2023-06-14T07:29:08;101781.11;;;26.71;48.25
59873;BME280;50750;51.636;4.948;2023-06-14T07:31:35;101780.79;;;26.70;48.26
59873;BME280;50750;51.636;4.948;2023-06-14T07:34:01;101781.65;;;26.71;48.27
59873;BME280;50750;51.636;4.948;2023-06-14T07:36:28;101787.50;;;26.69;48.32
59873;BME280;50750;51.636;4.948;2023-06-14T07:38:54;101786.05;;;26.69;48.35
59873;BME280;50750;51.636;4.948;2023-06-14T07:41:21;101780.70;;;26.69;48.49
59873;BME280;50750;51.636;4.948;2023-06-14T07:43:48;101783.39;;;26.69;48.49
59873;BME280;50750;51.636;4.948;2023-06-14T07:46:14;101785.17;;;26.69;48.65
59873;BME280;50750;51.636;4.948;2023-06-14T07:48:41;101786.60;;;26.69;48.54
59873;BME280;50750;51.636;4.948;2023-06-14T07:51:07;101790.37;;;26.70;48.77
59873;BME280;50750;51.636;4.948;2023-06-14T07:53:33;101788.98;;;26.69;48.94
59873;BME280;50750;51.636;4.948;2023-06-14T07:56:00;101790.58;;;26.69;48.87
59873;BME280;50750;51.636;4.948;2023-06-14T07:58:26;101790.89;;;26.70;48.72
59873;BME280;50750;51.636;4.948;2023-06-14T08:00:53;101792.16;;;26.70;48.91
59873;BME280;50750;51.636;4.948;2023-06-14T08:03:19;101793.24;;;26.70;48.94
59873;BME280;50750;51.636;4.948;2023-06-14T08:05:46;101794.55;;;26.69;48.89
59873;BME280;50750;51.636;4.948;2023-06-14T08:08:12;101800.05;;;26.70;48.92
59873;BME280;50750;51.636;4.948;2023-06-14T08:10:39;101802.38;;;26.70;49.03
59873;BME280;50750;51.636;4.948;2023-06-14T08:13:05;101799.66;;;26.70;48.93
59873;BME280;50750;51.636;4.948;2023-06-14T08:15:31;101801.81;;;26.70;49.11
59873;BME280;50750;51.636;4.948;2023-06-14T08:17:58;101799.34;;;26.70;48.99
59873;BME280;50750;51.636;4.948;2023-06-14T08:20:26;101804.36;;;26.70;49.04
59873;BME280;50750;51.636;4.948;2023-06-14T08:22:53;101803.46;;;26.70;49.03
59873;BME280;50750;51.636;4.948;2023-06-14T08:25:22;101799.50;;;26.70;49.04
59873;BME280;50750;51.636;4.948;2023-06-14T08:27:49;101796.30;;;26.70;49.01
59873;BME280;50750;51.636;4.948;2023-06-14T08:30:16;101799.46;;;26.70;49.02
59873;BME280;50750;51.636;4.948;2023-06-14T08:32:43;101796.40;;;26.71;49.13
59873;BME280;50750;51.636;4.948;2023-06-14T08:35:10;101796.57;;;26.71;49.10
59873;BME280;50750;51.636;4.948;2023-06-14T08:37:40;101793.54;;;26.70;49.04
59873;BME280;50750;51.636;4.948;2023-06-14T08:40:18;101795.52;;;26.70;49.01
59873;BME280;50750;51.636;4.948;2023-06-14T08:42:48;101801.55;;;26.71;49.00
59873;BME280;50750;51.636;4.948;2023-06-14T08:45:16;101800.83;;;26.71;49.03
59873;BME280;50750;51.636;4.948;2023-06-14T08:47:43;101800.83;;;26.71;49.12
59873;BME280;50750;51.636;4.948;2023-06-14T08:50:11;101802.45;;;26.71;49.11
59873;BME280;50750;51.636;4.948;2023-06-14T08:52:38;101809.25;;;26.71;49.09
59873;BME280;50750;51.636;4.948;2023-06-14T08:55:12;101807.45;;;26.72;49.03
59873;BME280;50750;51.636;4.948;2023-06-14T08:57:38;101806.14;;;26.72;49.23
59873;BME280;50750;51.636;4.948;2023-06-14T09:00:06;101803.98;;;26.72;49.01
59873;BME280;50750;51.636;4.948;2023-06-14T09:02:39;101800.69;;;26.73;49.03
59873;BME280;50750;51.636;4.948;2023-06-14T09:05:10;101801.42;;;26.72;48.96
59873;BME280;50750;51.636;4.948;2023-06-14T09:07:39;101804.80;;;26.73;48.86
59873;BME280;50750;51.636;4.948;2023-06-14T09:10:10;101804.46;;;26.73;48.93
59873;BME280;50750;51.636;4.948;2023-06-14T09:12:38;101805.20;;;26.73;48.91
59873;BME280;50750;51.636;4.948;2023-06-14T09:15:06;101810.73;;;26.73;48.82
59873;BME280;50750;51.636;4.948;2023-06-14T09:17:38;101804.97;;;26.73;48.85
59873;BME280;50750;51.636;4.948;2023-06-14T09:20:07;101809.46;;;26.73;48.82
59873;BME280;50750;51.636;4.948;2023-06-14T09:22:37;101813.38;;;26.73;48.87
59873;BME280;50750;51.636;4.948;2023-06-14T09:25:04;101811.92;;;26.74;48.75
59873;BME280;50750;51.636;4.948;2023-06-14T09:27:32;101814.22;;;26.74;48.56
59873;BME280;50750;51.636;4.948;2023-06-14T09:29:59;101812.37;;;26.75;48.64
59873;BME280;50750;51.636;4.948;2023-06-14T09:32:25;101816.27;;;26.75;48.62
59873;BME280;50750;51.636;4.948;2023-06-14T09:34:52;101816.23;;;26.76;48.67
59873;BME280;50750;51.636;4.948;2023-06-14T09:37:32;101819.27;;;26.76;48.81
59873;BME280;50750;51.636;4.948;2023-06-14T09:40:00;101820.84;;;26.77;48.71
59873;BME280;50750;51.636;4.948;2023-06-14T09:42:26;101819.23;;;26.77;48.56
59873;BME280;50750;51.636;4.948;2023-06-14T09:44:56;101816.69;;;26.77;48.68
59873;BME280;50750;51.636;4.948;2023-06-14T09:47:23;101820.23;;;26.78;48.63
59873;BME280;50750;51.636;4.948;2023-06-14T09:49:51;101822.02;;;26.78;48.52
59873;BME280;50750;51.636;4.948;2023-06-14T09:52:21;101823.80;;;26.78;48.61
59873;BME280;50750;51.636;4.948;2023-06-14T09:54:48;101824.55;;;26.78;48.49
59873;BME280;50750;51.636;4.948;2023-06-14T09:57:22;101819.21;;;26.77;48.66
59873;BME280;50750;51.636;4.948;2023-06-14T09:59:53;101820.23;;;26.77;48.65
59873;BME280;50750;51.636;4.948;2023-06-14T10:02:25;101818.08;;;26.77;48.49
59873;BME280;50750;51.636;4.948;2023-06-14T10:05:06;101817.14;;;26.78;48.48
59873;BME280;50750;51.636;4.948;2023-06-14T10:07:59;101817.13;;;26.78;48.47
59873;BME280;50750;51.636;4.948;2023-06-14T10:10:23;101821.06;;;26.78;48.39
59873;BME280;50750;51.636;4.948;2023-06-14T10:12:50;101821.25;;;26.78;48.24
59873;BME280;50750;51.636;4.948;2023-06-14T10:15:42;101814.91;;;26.79;48.11
59873;BME280;50750;51.636;4.948;2023-06-14T10:21:26;101820.42;;;26.79;48.10
59873;BME280;50750;51.636;4.948;2023-06-14T10:23:44;101819.14;;;26.80;47.90
59873;BME280;50750;51.636;4.948;2023-06-14T10:26:23;101814.80;;;26.80;47.81
59873;BME280;50750;51.636;4.948;2023-06-14T10:29:07;101815.46;;;26.81;47.81
59873;BME280;50750;51.636;4.948;2023-06-14T10:31:44;101818.11;;;26.81;47.80
59873;BME280;50750;51.636;4.948;2023-06-14T10:34:12;101820.95;;;26.82;47.57
59873;BME280;50750;51.636;4.948;2023-06-14T10:37:00;101815.04;;;26.82;47.54
59873;BME280;50750;51.636;4.948;2023-06-14T10:39:28;101813.55;;;26.82;47.59
59873;BME280;50750;51.636;4.948;2023-06-14T10:41:56;101810.29;;;26.82;47.59
59873;BME280;50750;51.636;4.948;2023-06-14T10:46:52;101812.55;;;26.83;47.48
59873;BME280;50750;51.636;4.948;2023-06-14T10:49:19;101809.27;;;26.84;47.49
59873;BME280;50750;51.636;4.948;2023-06-14T10:51:50;101818.52;;;26.85;47.62
59873;BME280;50750;51.636;4.948;2023-06-14T10:54:20;101817.06;;;26.85;47.62
59873;BME280;50750;51.636;4.948;2023-06-14T10:56:49;101811.14;;;26.85;47.55
59873;BME280;50750;51.636;4.948;2023-06-14T10:59:16;101818.45;;;26.86;47.57
59873;BME280;50750;51.636;4.948;2023-06-14T11:02:46;101817.49;;;26.86;47.70
59873;BME280;50750;51.636;4.948;2023-06-14T11:05:15;101810.64;;;26.87;47.67
59873;BME280;50750;51.636;4.948;2023-06-14T11:07:58;101813.85;;;26.87;47.65
59873;BME280;50750;51.636;4.948;2023-06-14T11:10:41;101817.73;;;26.88;47.72
59873;BME280;50750;51.636;4.948;2023-06-14T11:13:08;101813.05;;;26.88;47.44
59873;BME280;50750;51.636;4.948;2023-06-14T11:15:36;101811.21;;;26.88;47.36
59873;BME280;50750;51.636;4.948;2023-06-14T11:18:07;101808.88;;;26.88;46.99
59873;BME280;50750;51.636;4.948;2023-06-14T11:20:36;101817.46;;;26.89;47.13
59873;BME280;50750;51.636;4.948;2023-06-14T11:23:03;101812.73;;;26.90;47.14
59873;BME280;50750;51.636;4.948;2023-06-14T11:25:31;101812.17;;;26.90;47.30
59873;BME280;50750;51.636;4.948;2023-06-14T11:27:57;101804.05;;;26.91;47.26
59873;BME280;50750;51.636;4.948;2023-06-14T11:30:25;101805.11;;;26.91;47.18
59873;BME280;50750;51.636;4.948;2023-06-14T11:32:53;101809.02;;;26.91;47.32
59873;BME280;50750;51.636;4.948;2023-06-14T11:35:24;101805.24;;;26.91;47.07
59873;BME280;50750;51.636;4.948;2023-06-14T11:37:54;101798.01;;;26.92;47.08
59873;BME280;50750;51.636;4.948;2023-06-14T11:40:26;101796.01;;;26.92;47.10
59873;BME280;50750;51.636;4.948;2023-06-14T11:43:01;101800.48;;;26.92;46.76
59873;BME280;50750;51.636;4.948;2023-06-14T11:45:29;101797.57;;;26.93;46.72
59873;BME280;50750;51.636;4.948;2023-06-14T11:47:58;101797.54;;;26.93;46.77
59873;BME280;50750;51.636;4.948;2023-06-14T11:50:25;101797.31;;;26.93;46.83
59873;BME280;50750;51.636;4.948;2023-06-14T11:52:53;101797.63;;;26.94;46.55
59873;BME280;50750;51.636;4.948;2023-06-14T11:55:22;101790.59;;;26.95;46.71
59873;BME280;50750;51.636;4.948;2023-06-14T11:57:49;101799.42;;;26.94;46.57
59873;BME280;50750;51.636;4.948;2023-06-14T12:00:16;101802.06;;;26.95;46.51
59873;BME280;50750;51.636;4.948;2023-06-14T12:02:52;101801.67;;;26.95;46.40
59873;BME280;50750;51.636;4.948;2023-06-14T12:05:21;101803.79;;;26.96;46.40
59873;BME280;50750;51.636;4.948;2023-06-14T12:07:47;101804.49;;;26.96;46.33
59873;BME280;50750;51.636;4.948;2023-06-14T12:10:14;101799.30;;;26.96;46.50
59873;BME280;50750;51.636;4.948;2023-06-14T12:12:42;101802.41;;;26.97;46.50
59873;BME280;50750;51.636;4.948;2023-06-14T12:15:09;101801.67;;;26.97;46.53
59873;BME280;50750;51.636;4.948;2023-06-14T12:17:39;101799.32;;;26.97;46.60
59873;BME280;50750;51.636;4.948;2023-06-14T12:20:12;101798.55;;;26.98;46.43
59873;BME280;50750;51.636;4.948;2023-06-14T12:22:54;101803.04;;;26.98;46.26
59873;BME280;50750;51.636;4.948;2023-06-14T12:25:24;101808.77;;;26.98;46.17
59873;BME280;50750;51.636;4.948;2023-06-14T12:27:55;101812.98;;;26.99;46.12
59873;BME280;50750;51.636;4.948;2023-06-14T12:30:22;101813.54;;;26.99;46.15
59873;BME280;50750;51.636;4.948;2023-06-14T12:32:48;101807.39;;;27.00;46.25
59873;BME280;50750;51.636;4.948;2023-06-14T12:35:15;101805.55;;;27.00;46.35
59873;BME280;50750;51.636;4.948;2023-06-14T12:37:41;101802.09;;;27.01;46.19
59873;BME280;50750;51.636;4.948;2023-06-14T12:40:08;101798.29;;;27.01;46.50
59873;BME280;50750;51.636;4.948;2023-06-14T12:42:35;101799.81;;;27.02;46.45
59873;BME280;50750;51.636;4.948;2023-06-14T12:45:02;101803.72;;;27.03;46.16
59873;BME280;50750;51.636;4.948;2023-06-14T12:47:29;101804.76;;;27.03;46.22
59873;BME280;50750;51.636;4.948;2023-06-14T12:49:56;101807.24;;;27.03;46.34
59873;BME280;50750;51.636;4.948;2023-06-14T12:52:22;101804.86;;;27.04;46.24
59873;BME280;50750;51.636;4.948;2023-06-14T12:54:49;101808.06;;;27.04;46.10
59873;BME280;50750;51.636;4.948;2023-06-14T12:57:16;101808.58;;;27.04;46.10
59873;BME280;50750;51.636;4.948;2023-06-14T12:59:42;101807.10;;;27.05;45.94
59873;BME280;50750;51.636;4.948;2023-06-14T13:04:39;101809.71;;;27.06;46.23
59873;BME280;50750;51.636;4.948;2023-06-14T13:07:05;101809.88;;;27.06;46.09